sensor_id;sensor_type;location;lat;lon;timestamp;temperature;humidity
27540;DHT22;15906;52.046;4.724;2023-05-07T00:00:23;14.90;99.90
27540;DHT22;15906;52.046;4.724;2023-05-07T00:02:49;14.90;99.90
27540;DHT22;15906;52.046;4.724;2023-05-07T00:05:15;14.80;99.90
27540;DHT22;15906;52.046;4.724;2023-05-07T00:07:41;14.90;99.90
27540;DHT22;15906;52.046;4.724;2023-05-07T00:10:07;14.80;99.90
27540;DHT22;15906;52.046;4.724;2023-05-07T00:12:33;14.90;99.90
27540;DHT22;15906;52.046;4.724;2023-05-07T00:15:02;14.90;99.90
27540;DHT22;15906;52.046;4.724;2023-05-07T00:17:29;14.90;99.90
27540;DHT22;15906;52.046;4.724;2023-05-07T00:19:54;15.00;99.90
27540;DHT22;15906;52.046;4.724;2023-05-07T00:22:20;14.90;99.90
27540;DHT22;15906;52.046;4.724;2023-05-07T00:24:46;14.90;99.90
27540;DHT22;15906;52.046;4.724;2023-05-07T00:27:12;14.90;99.90
27540;DHT22;15906;52.046;4.724;2023-05-07T00:29:37;15.00;99.90
27540;DHT22;15906;52.046;4.724;2023-05-07T00:32:03;14.80;99.90
27540;DHT22;15906;52.046;4.724;2023-05-07T00:34:28;14.90;99.90
27540;DHT22;15906;52.046;4.724;2023-05-07T00:36:54;14.90;99.90
27540;DHT22;15906;52.046;4.724;2023-05-07T00:39:20;14.80;99.90
27540;DHT22;15906;52.046;4.724;2023-05-07T00:41:46;14.80;99.90
27540;DHT22;15906;52.046;4.724;2023-05-07T00:44:11;14.80;99.90
27540;DHT22;15906;52.046;4.724;2023-05-07T00:46:37;14.90;99.90
27540;DHT22;15906;52.046;4.724;2023-05-07T00:49:03;14.70;99.90
27540;DHT22;15906;52.046;4.724;2023-05-07T00:51:30;14.90;99.90
27540;DHT22;15906;52.046;4.724;2023-05-07T00:53:56;14.90;99.90
27540;DHT22;15906;52.046;4.724;2023-05-07T00:56:22;14.80;99.90
27540;DHT22;15906;52.046;4.724;2023-05-07T00:58:48;14.80;99.90
27540;DHT22;15906;52.046;4.724;2023-05-07T01:01:14;14.80;99.90
27540;DHT22;15906;52.046;4.724;2023-05-07T01:03:42;14.80;99.90
27540;DHT22;15906;52.046;4.724;2023-05-07T01:06:08;14.80;99.90
27540;DHT22;15906;52.046;4.724;2023-05-07T01:08:35;14.80;99.90
27540;DHT22;15906;52.046;4.724;2023-05-07T01:11:02;14.80;99.90
27540;DHT22;15906;52.046;4.724;2023-05-07T01:13:27;14.80;99.90
27540;DHT22;15906;52.046;4.724;2023-05-07T01:15:54;14.70;99.90
27540;DHT22;15906;52.046;4.724;2023-05-07T01:18:19;14.70;99.90
27540;DHT22;15906;52.046;4.724;2023-05-07T01:20:45;14.60;99.90
27540;DHT22;15906;52.046;4.724;2023-05-07T01:23:11;14.60;99.90
27540;DHT22;15906;52.046;4.724;2023-05-07T01:25:36;14.70;99.90
27540;DHT22;15906;52.046;4.724;2023-05-07T01:28:02;14.70;99.90
27540;DHT22;15906;52.046;4.724;2023-05-07T01:30:28;14.60;99.90
27540;DHT22;15906;52.046;4.724;2023-05-07T01:33:06;14.60;99.90
27540;DHT22;15906;52.046;4.724;2023-05-07T01:35:40;14.60;99.90
27540;DHT22;15906;52.046;4.724;2023-05-07T01:38:07;14.60;99.90
27540;DHT22;15906;52.046;4.724;2023-05-07T01:40:33;14.60;99.90
27540;DHT22;15906;52.046;4.724;2023-05-07T01:43:03;14.60;99.90
27540;DHT22;15906;52.046;4.724;2023-05-07T01:45:30;14.50;99.90
27540;DHT22;15906;52.046;4.724;2023-05-07T01:47:58;14.50;99.90
27540;DHT22;15906;52.046;4.724;2023-05-07T01:50:25;14.50;99.90
27540;DHT22;15906;52.046;4.724;2023-05-07T01:52:51;14.50;99.90
27540;DHT22;15906;52.046;4.724;2023-05-07T01:55:17;14.50;99.90
27540;DHT22;15906;52.046;4.724;2023-05-07T01:57:43;14.50;99.90
27540;DHT22;15906;52.046;4.724;2023-05-07T02:00:09;14.50;99.90
27540;DHT22;15906;52.046;4.724;2023-05-07T02:02:35;14.50;99.90
27540;DHT22;15906;52.046;4.724;2023-05-07T02:05:01;14.50;99.90
27540;DHT22;15906;52.046;4.724;2023-05-07T02:07:27;14.50;99.90
27540;DHT22;15906;52.046;4.724;2023-05-07T02:09:53;14.50;99.90
27540;DHT22;15906;52.046;4.724;2023-05-07T02:12:20;14.50;99.90
27540;DHT22;15906;52.046;4.724;2023-05-07T02:14:46;14.50;99.90
27540;DHT22;15906;52.046;4.724;2023-05-07T02:17:11;14.50;99.90
27540;DHT22;15906;52.046;4.724;2023-05-07T02:19:37;14.40;99.90
27540;DHT22;15906;52.046;4.724;2023-05-07T02:22:03;14.40;99.90
27540;DHT22;15906;52.046;4.724;2023-05-07T02:24:28;14.50;99.90
27540;DHT22;15906;52.046;4.724;2023-05-07T02:26:54;14.50;99.90
27540;DHT22;15906;52.046;4.724;2023-05-07T02:29:19;14.50;99.90
27540;DHT22;15906;52.046;4.724;2023-05-07T02:31:45;14.40;99.90
27540;DHT22;15906;52.046;4.724;2023-05-07T02:34:10;14.50;99.90
27540;DHT22;15906;52.046;4.724;2023-05-07T02:36:36;14.50;99.90
27540;DHT22;15906;52.046;4.724;2023-05-07T02:39:02;14.50;99.90
27540;DHT22;15906;52.046;4.724;2023-05-07T02:41:28;14.50;99.90
27540;DHT22;15906;52.046;4.724;2023-05-07T02:43:54;14.50;99.90
27540;DHT22;15906;52.046;4.724;2023-05-07T02:46:19;14.50;99.90
27540;DHT22;15906;52.046;4.724;2023-05-07T02:48:45;14.50;99.90
27540;DHT22;15906;52.046;4.724;2023-05-07T02:51:10;14.40;99.90
27540;DHT22;15906;52.046;4.724;2023-05-07T02:53:36;14.40;99.90
27540;DHT22;15906;52.046;4.724;2023-05-07T02:56:02;14.50;99.90
27540;DHT22;15906;52.046;4.724;2023-05-07T02:58:28;14.50;99.90
27540;DHT22;15906;52.046;4.724;2023-05-07T03:00:54;14.50;99.90
27540;DHT22;15906;52.046;4.724;2023-05-07T03:03:22;14.40;99.90
27540;DHT22;15906;52.046;4.724;2023-05-07T03:05:48;14.50;99.90
27540;DHT22;15906;52.046;4.724;2023-05-07T03:08:14;14.50;99.90
27540;DHT22;15906;52.046;4.724;2023-05-07T03:10:39;14.50;99.90
27540;DHT22;15906;52.046;4.724;2023-05-07T03:13:05;14.50;99.90
27540;DHT22;15906;52.046;4.724;2023-05-07T03:15:31;14.40;99.90
27540;DHT22;15906;52.046;4.724;2023-05-07T03:17:56;14.50;99.90
27540;DHT22;15906;52.046;4.724;2023-05-07T03:20:22;14.50;99.90
27540;DHT22;15906;52.046;4.724;2023-05-07T03:22:48;14.50;99.90
27540;DHT22;15906;52.046;4.724;2023-05-07T03:25:13;14.50;99.90
27540;DHT22;15906;52.046;4.724;2023-05-07T03:27:40;14.50;99.90
27540;DHT22;15906;52.046;4.724;2023-05-07T03:30:07;14.60;99.90
27540;DHT22;15906;52.046;4.724;2023-05-07T03:32:34;14.50;99.90
27540;DHT22;15906;52.046;4.724;2023-05-07T03:35:00;14.60;99.90
27540;DHT22;15906;52.046;4.724;2023-05-07T03:37:26;14.60;99.90
27540;DHT22;15906;52.046;4.724;2023-05-07T03:39:52;14.60;99.90
27540;DHT22;15906;52.046;4.724;2023-05-07T03:42:17;14.60;99.90
27540;DHT22;15906;52.046;4.724;2023-05-07T03:44:43;14.60;99.90
27540;DHT22;15906;52.046;4.724;2023-05-07T03:47:08;14.60;99.90
27540;DHT22;15906;52.046;4.724;2023-05-07T03:49:35;14.70;99.90
27540;DHT22;15906;52.046;4.724;2023-05-07T03:52:01;14.70;99.90
27540;DHT22;15906;52.046;4.724;2023-05-07T03:54:27;14.70;99.90
27540;DHT22;15906;52.046;4.724;2023-05-07T03:56:52;14.60;99.90
27540;DHT22;15906;52.046;4.724;2023-05-07T03:59:18;14.60;99.90
27540;DHT22;15906;52.046;4.724;2023-05-07T04:01:43;14.60;99.90
27540;DHT22;15906;52.046;4.724;2023-05-07T04:04:09;14.60;99.90
27540;DHT22;15906;52.046;4.724;2023-05-07T04:06:34;14.60;99.90
27540;DHT22;15906;52.046;4.724;2023-05-07T04:09:00;14.60;99.90
27540;DHT22;15906;52.046;4.724;2023-05-07T04:11:26;14.70;99.90
27540;DHT22;15906;52.046;4.724;2023-05-07T04:13:51;14.60;99.90
27540;DHT22;15906;52.046;4.724;2023-05-07T04:16:17;14.70;99.90
27540;DHT22;15906;52.046;4.724;2023-05-07T04:18:42;14.70;99.90
27540;DHT22;15906;52.046;4.724;2023-05-07T04:21:16;14.70;99.90
27540;DHT22;15906;52.046;4.724;2023-05-07T04:23:41;14.60;99.90
27540;DHT22;15906;52.046;4.724;2023-05-07T04:26:07;14.60;99.90
27540;DHT22;15906;52.046;4.724;2023-05-07T04:28:33;14.60;99.90
27540;DHT22;15906;52.046;4.724;2023-05-07T04:30:59;14.60;99.90
27540;DHT22;15906;52.046;4.724;2023-05-07T04:33:24;14.70;99.90
27540;DHT22;15906;52.046;4.724;2023-05-07T04:35:50;14.60;99.90
27540;DHT22;15906;52.046;4.724;2023-05-07T04:38:16;14.60;99.90
27540;DHT22;15906;52.046;4.724;2023-05-07T04:40:42;14.60;99.90
27540;DHT22;15906;52.046;4.724;2023-05-07T04:43:07;14.60;99.90
27540;DHT22;15906;52.046;4.724;2023-05-07T04:45:35;14.50;99.90
27540;DHT22;15906;52.046;4.724;2023-05-07T04:48:00;14.50;99.90
27540;DHT22;15906;52.046;4.724;2023-05-07T04:50:26;14.50;99.90
27540;DHT22;15906;52.046;4.724;2023-05-07T04:52:52;14.50;99.90
27540;DHT22;15906;52.046;4.724;2023-05-07T04:55:17;14.60;99.90
27540;DHT22;15906;52.046;4.724;2023-05-07T04:57:43;14.60;99.90
27540;DHT22;15906;52.046;4.724;2023-05-07T05:00:09;14.60;99.90
27540;DHT22;15906;52.046;4.724;2023-05-07T05:02:35;14.60;99.90
27540;DHT22;15906;52.046;4.724;2023-05-07T05:05:01;14.70;99.90
27540;DHT22;15906;52.046;4.724;2023-05-07T05:07:27;14.60;99.90
27540;DHT22;15906;52.046;4.724;2023-05-07T05:09:54;14.70;99.90
27540;DHT22;15906;52.046;4.724;2023-05-07T05:12:20;14.70;99.90
27540;DHT22;15906;52.046;4.724;2023-05-07T05:14:45;14.80;99.90
27540;DHT22;15906;52.046;4.724;2023-05-07T05:17:11;14.70;99.90
27540;DHT22;15906;52.046;4.724;2023-05-07T05:19:36;14.80;99.90
27540;DHT22;15906;52.046;4.724;2023-05-07T05:22:02;14.80;99.90
27540;DHT22;15906;52.046;4.724;2023-05-07T05:24:29;14.90;99.90
27540;DHT22;15906;52.046;4.724;2023-05-07T05:26:55;14.80;99.90
27540;DHT22;15906;52.046;4.724;2023-05-07T05:29:21;14.80;99.90
27540;DHT22;15906;52.046;4.724;2023-05-07T05:31:46;14.80;99.90
27540;DHT22;15906;52.046;4.724;2023-05-07T05:34:12;14.90;99.90
27540;DHT22;15906;52.046;4.724;2023-05-07T05:36:37;14.90;99.90
27540;DHT22;15906;52.046;4.724;2023-05-07T05:39:04;14.90;99.90
27540;DHT22;15906;52.046;4.724;2023-05-07T05:41:29;15.00;99.90
27540;DHT22;15906;52.046;4.724;2023-05-07T05:43:55;14.90;99.90
27540;DHT22;15906;52.046;4.724;2023-05-07T05:46:21;15.00;99.90
27540;DHT22;15906;52.046;4.724;2023-05-07T05:48:46;15.00;99.90
27540;DHT22;15906;52.046;4.724;2023-05-07T05:51:12;15.00;99.90
27540;DHT22;15906;52.046;4.724;2023-05-07T05:53:38;15.00;99.90
27540;DHT22;15906;52.046;4.724;2023-05-07T05:56:04;15.00;99.90
27540;DHT22;15906;52.046;4.724;2023-05-07T05:58:30;15.00;99.90
27540;DHT22;15906;52.046;4.724;2023-05-07T06:00:55;15.00;99.90
27540;DHT22;15906;52.046;4.724;2023-05-07T06:03:21;15.00;99.90
27540;DHT22;15906;52.046;4.724;2023-05-07T06:05:47;15.00;99.90
27540;DHT22;15906;52.046;4.724;2023-05-07T06:08:13;15.00;99.90
27540;DHT22;15906;52.046;4.724;2023-05-07T06:10:38;15.00;99.90
27540;DHT22;15906;52.046;4.724;2023-05-07T06:13:04;15.00;99.90
27540;DHT22;15906;52.046;4.724;2023-05-07T06:15:30;15.10;99.90
27540;DHT22;15906;52.046;4.724;2023-05-07T06:17:56;15.10;99.90
27540;DHT22;15906;52.046;4.724;2023-05-07T06:20:22;15.10;99.90
27540;DHT22;15906;52.046;4.724;2023-05-07T06:22:48;15.10;99.90
27540;DHT22;15906;52.046;4.724;2023-05-07T06:25:14;15.10;99.90
27540;DHT22;15906;52.046;4.724;2023-05-07T06:27:40;15.00;99.90
27540;DHT22;15906;52.046;4.724;2023-05-07T06:30:06;15.00;99.90
27540;DHT22;15906;52.046;4.724;2023-05-07T06:32:32;15.00;99.90
27540;DHT22;15906;52.046;4.724;2023-05-07T06:34:57;15.10;99.90
27540;DHT22;15906;52.046;4.724;2023-05-07T06:37:23;15.00;99.90
27540;DHT22;15906;52.046;4.724;2023-05-07T06:39:48;15.00;99.90
27540;DHT22;15906;52.046;4.724;2023-05-07T06:42:14;15.10;99.90
27540;DHT22;15906;52.046;4.724;2023-05-07T06:44:40;15.10;99.90
27540;DHT22;15906;52.046;4.724;2023-05-07T06:47:05;15.20;99.90
27540;DHT22;15906;52.046;4.724;2023-05-07T06:49:31;15.20;99.90
27540;DHT22;15906;52.046;4.724;2023-05-07T06:51:57;15.20;99.90
27540;DHT22;15906;52.046;4.724;2023-05-07T06:54:22;15.10;99.90
27540;DHT22;15906;52.046;4.724;2023-05-07T06:56:48;15.20;99.90
27540;DHT22;15906;52.046;4.724;2023-05-07T06:59:14;15.20;99.90
27540;DHT22;15906;52.046;4.724;2023-05-07T07:01:39;15.10;99.90
27540;DHT22;15906;52.046;4.724;2023-05-07T07:04:05;15.20;99.90
27540;DHT22;15906;52.046;4.724;2023-05-07T07:06:31;15.20;99.90
27540;DHT22;15906;52.046;4.724;2023-05-07T07:08:57;15.10;99.90
27540;DHT22;15906;52.046;4.724;2023-05-07T07:11:23;15.30;99.90
27540;DHT22;15906;52.046;4.724;2023-05-07T07:13:49;15.20;99.90
27540;DHT22;15906;52.046;4.724;2023-05-07T07:16:15;15.20;99.90
27540;DHT22;15906;52.046;4.724;2023-05-07T07:18:40;15.30;99.90
27540;DHT22;15906;52.046;4.724;2023-05-07T07:21:06;15.30;99.90
27540;DHT22;15906;52.046;4.724;2023-05-07T07:23:32;15.20;99.90
27540;DHT22;15906;52.046;4.724;2023-05-07T07:25:57;15.30;99.90
27540;DHT22;15906;52.046;4.724;2023-05-07T07:28:23;15.30;99.90
27540;DHT22;15906;52.046;4.724;2023-05-07T07:30:49;15.30;99.90
27540;DHT22;15906;52.046;4.724;2023-05-07T07:33:15;15.30;99.90
27540;DHT22;15906;52.046;4.724;2023-05-07T07:35:40;15.40;99.90
27540;DHT22;15906;52.046;4.724;2023-05-07T07:38:06;15.30;99.90
27540;DHT22;15906;52.046;4.724;2023-05-07T07:40:33;15.30;99.90
27540;DHT22;15906;52.046;4.724;2023-05-07T07:42:59;15.40;99.90
27540;DHT22;15906;52.046;4.724;2023-05-07T07:45:26;15.30;99.90
27540;DHT22;15906;52.046;4.724;2023-05-07T07:47:52;15.40;99.90
27540;DHT22;15906;52.046;4.724;2023-05-07T07:50:18;15.50;99.90
27540;DHT22;15906;52.046;4.724;2023-05-07T07:52:44;15.60;99.90
27540;DHT22;15906;52.046;4.724;2023-05-07T07:55:09;16.00;99.90
27540;DHT22;15906;52.046;4.724;2023-05-07T07:57:35;16.10;99.90
27540;DHT22;15906;52.046;4.724;2023-05-07T08:00:01;16.30;99.90
27540;DHT22;15906;52.046;4.724;2023-05-07T08:02:26;16.60;99.90
27540;DHT22;15906;52.046;4.724;2023-05-07T08:04:52;16.90;99.90
27540;DHT22;15906;52.046;4.724;2023-05-07T08:07:18;17.30;99.90
27540;DHT22;15906;52.046;4.724;2023-05-07T08:09:46;17.50;99.90
27540;DHT22;15906;52.046;4.724;2023-05-07T08:12:11;17.70;99.90
27540;DHT22;15906;52.046;4.724;2023-05-07T08:14:37;17.70;99.90
27540;DHT22;15906;52.046;4.724;2023-05-07T08:17:03;17.90;99.90
27540;DHT22;15906;52.046;4.724;2023-05-07T08:19:28;18.10;99.90
27540;DHT22;15906;52.046;4.724;2023-05-07T08:21:54;18.10;99.90
27540;DHT22;15906;52.046;4.724;2023-05-07T08:24:20;18.20;99.90
27540;DHT22;15906;52.046;4.724;2023-05-07T08:26:46;18.20;99.90
27540;DHT22;15906;52.046;4.724;2023-05-07T08:29:12;18.40;99.90
27540;DHT22;15906;52.046;4.724;2023-05-07T08:31:37;18.40;99.90
27540;DHT22;15906;52.046;4.724;2023-05-07T08:34:05;18.50;99.90
27540;DHT22;15906;52.046;4.724;2023-05-07T08:36:32;18.60;99.90
27540;DHT22;15906;52.046;4.724;2023-05-07T08:38:57;18.80;99.90
27540;DHT22;15906;52.046;4.724;2023-05-07T08:41:23;18.80;99.90
27540;DHT22;15906;52.046;4.724;2023-05-07T08:43:50;18.90;99.90
27540;DHT22;15906;52.046;4.724;2023-05-07T08:46:20;19.20;99.90
27540;DHT22;15906;52.046;4.724;2023-05-07T08:48:49;18.90;99.90
27540;DHT22;15906;52.046;4.724;2023-05-07T08:51:19;18.90;99.90
27540;DHT22;15906;52.046;4.724;2023-05-07T08:53:47;18.70;99.90
27540;DHT22;15906;52.046;4.724;2023-05-07T08:56:16;18.70;99.90
27540;DHT22;15906;52.046;4.724;2023-05-07T08:58:43;18.60;99.90
27540;DHT22;15906;52.046;4.724;2023-05-07T09:01:12;18.90;99.90
27540;DHT22;15906;52.046;4.724;2023-05-07T09:03:39;19.00;99.90
27540;DHT22;15906;52.046;4.724;2023-05-07T09:06:05;19.00;99.90
27540;DHT22;15906;52.046;4.724;2023-05-07T09:08:32;18.90;99.90
27540;DHT22;15906;52.046;4.724;2023-05-07T09:10:58;18.90;99.90
27540;DHT22;15906;52.046;4.724;2023-05-07T09:13:23;18.80;99.90
27540;DHT22;15906;52.046;4.724;2023-05-07T09:15:49;18.80;99.90
27540;DHT22;15906;52.046;4.724;2023-05-07T09:18:15;18.70;99.90
27540;DHT22;15906;52.046;4.724;2023-05-07T09:20:40;18.80;99.90
27540;DHT22;15906;52.046;4.724;2023-05-07T09:23:07;18.80;99.90
27540;DHT22;15906;52.046;4.724;2023-05-07T09:25:36;18.50;99.90
27540;DHT22;15906;52.046;4.724;2023-05-07T09:28:02;18.60;99.90
27540;DHT22;15906;52.046;4.724;2023-05-07T09:30:33;18.70;99.90
27540;DHT22;15906;52.046;4.724;2023-05-07T09:32:59;18.70;99.90
27540;DHT22;15906;52.046;4.724;2023-05-07T09:35:25;19.00;99.90
27540;DHT22;15906;52.046;4.724;2023-05-07T09:37:58;19.20;99.90
27540;DHT22;15906;52.046;4.724;2023-05-07T09:40:27;19.20;99.90
27540;DHT22;15906;52.046;4.724;2023-05-07T09:42:53;19.00;99.90
27540;DHT22;15906;52.046;4.724;2023-05-07T09:45:26;19.00;99.90
27540;DHT22;15906;52.046;4.724;2023-05-07T09:47:56;19.10;99.90
27540;DHT22;15906;52.046;4.724;2023-05-07T09:50:46;19.00;99.90
27540;DHT22;15906;52.046;4.724;2023-05-07T09:53:14;19.00;99.90
27540;DHT22;15906;52.046;4.724;2023-05-07T09:55:41;18.90;99.90
27540;DHT22;15906;52.046;4.724;2023-05-07T09:58:07;19.00;99.90
27540;DHT22;15906;52.046;4.724;2023-05-07T10:00:35;19.00;99.90
27540;DHT22;15906;52.046;4.724;2023-05-07T10:03:01;19.20;99.90
27540;DHT22;15906;52.046;4.724;2023-05-07T10:05:28;19.00;99.90
27540;DHT22;15906;52.046;4.724;2023-05-07T10:07:54;19.10;99.90
27540;DHT22;15906;52.046;4.724;2023-05-07T10:10:22;19.00;99.90
27540;DHT22;15906;52.046;4.724;2023-05-07T10:12:49;18.80;99.90
27540;DHT22;15906;52.046;4.724;2023-05-07T10:15:16;18.90;99.90
27540;DHT22;15906;52.046;4.724;2023-05-07T10:17:42;18.90;99.90
27540;DHT22;15906;52.046;4.724;2023-05-07T10:20:08;18.90;99.90
27540;DHT22;15906;52.046;4.724;2023-05-07T10:22:45;19.00;99.90
27540;DHT22;15906;52.046;4.724;2023-05-07T10:25:28;19.10;99.90
27540;DHT22;15906;52.046;4.724;2023-05-07T10:27:56;19.00;99.90
27540;DHT22;15906;52.046;4.724;2023-05-07T10:32:56;19.30;99.90
27540;DHT22;15906;52.046;4.724;2023-05-07T10:35:37;19.40;99.90
27540;DHT22;15906;52.046;4.724;2023-05-07T10:38:03;19.60;99.90
27540;DHT22;15906;52.046;4.724;2023-05-07T10:40:30;20.00;99.90
27540;DHT22;15906;52.046;4.724;2023-05-07T10:42:57;20.10;99.90
27540;DHT22;15906;52.046;4.724;2023-05-07T10:45:25;20.00;99.90
27540;DHT22;15906;52.046;4.724;2023-05-07T10:48:15;20.00;99.90
27540;DHT22;15906;52.046;4.724;2023-05-07T10:50:42;19.90;99.90
27540;DHT22;15906;52.046;4.724;2023-05-07T10:55:49;20.20;99.90
27540;DHT22;15906;52.046;4.724;2023-05-07T11:00:48;20.30;99.90
27540;DHT22;15906;52.046;4.724;2023-05-07T11:03:14;20.60;99.90
27540;DHT22;15906;52.046;4.724;2023-05-07T11:05:41;20.70;99.90
27540;DHT22;15906;52.046;4.724;2023-05-07T11:08:08;20.70;99.90
27540;DHT22;15906;52.046;4.724;2023-05-07T11:10:54;20.80;99.90
27540;DHT22;15906;52.046;4.724;2023-05-07T11:13:55;21.00;99.90
27540;DHT22;15906;52.046;4.724;2023-05-07T11:16:25;21.20;99.90
27540;DHT22;15906;52.046;4.724;2023-05-07T11:18:54;21.40;99.90
27540;DHT22;15906;52.046;4.724;2023-05-07T11:21:39;21.60;99.90
27540;DHT22;15906;52.046;4.724;2023-05-07T11:24:09;21.50;99.90
27540;DHT22;15906;52.046;4.724;2023-05-07T11:27:02;21.00;99.90
27540;DHT22;15906;52.046;4.724;2023-05-07T11:29:27;21.40;99.90
27540;DHT22;15906;52.046;4.724;2023-05-07T11:31:54;21.60;99.90
27540;DHT22;15906;52.046;4.724;2023-05-07T11:34:22;21.70;99.90
27540;DHT22;15906;52.046;4.724;2023-05-07T11:36:48;21.80;99.90
27540;DHT22;15906;52.046;4.724;2023-05-07T11:39:31;21.70;99.90
27540;DHT22;15906;52.046;4.724;2023-05-07T11:41:59;21.80;99.90
27540;DHT22;15906;52.046;4.724;2023-05-07T11:44:25;21.80;99.90
27540;DHT22;15906;52.046;4.724;2023-05-07T11:47:04;21.80;99.90
27540;DHT22;15906;52.046;4.724;2023-05-07T11:49:30;21.80;99.90
27540;DHT22;15906;52.046;4.724;2023-05-07T11:51:56;21.80;99.90
27540;DHT22;15906;52.046;4.724;2023-05-07T11:54:21;22.20;99.90
27540;DHT22;15906;52.046;4.724;2023-05-07T11:56:47;22.20;99.90
27540;DHT22;15906;52.046;4.724;2023-05-07T11:59:17;21.80;99.90
27540;DHT22;15906;52.046;4.724;2023-05-07T12:01:45;21.80;99.90
27540;DHT22;15906;52.046;4.724;2023-05-07T12:04:11;21.70;99.90
27540;DHT22;15906;52.046;4.724;2023-05-07T12:06:36;21.70;99.90
27540;DHT22;15906;52.046;4.724;2023-05-07T12:09:03;21.30;99.90
27540;DHT22;15906;52.046;4.724;2023-05-07T12:11:29;21.20;99.90
27540;DHT22;15906;52.046;4.724;2023-05-07T12:13:55;21.20;99.90
27540;DHT22;15906;52.046;4.724;2023-05-07T12:16:21;21.30;99.90
27540;DHT22;15906;52.046;4.724;2023-05-07T12:18:47;21.20;99.90
27540;DHT22;15906;52.046;4.724;2023-05-07T12:21:13;21.50;99.90
27540;DHT22;15906;52.046;4.724;2023-05-07T12:23:39;21.60;99.90
27540;DHT22;15906;52.046;4.724;2023-05-07T12:26:05;21.50;99.90
27540;DHT22;15906;52.046;4.724;2023-05-07T12:28:31;21.50;99.90
27540;DHT22;15906;52.046;4.724;2023-05-07T12:31:01;21.30;99.90
27540;DHT22;15906;52.046;4.724;2023-05-07T12:33:27;21.00;99.90
27540;DHT22;15906;52.046;4.724;2023-05-07T12:35:55;20.80;99.90
27540;DHT22;15906;52.046;4.724;2023-05-07T12:38:21;20.70;99.90
27540;DHT22;15906;52.046;4.724;2023-05-07T12:40:48;20.70;99.90
27540;DHT22;15906;52.046;4.724;2023-05-07T12:43:28;20.70;99.90
27540;DHT22;15906;52.046;4.724;2023-05-07T12:45:57;20.60;99.90
27540;DHT22;15906;52.046;4.724;2023-05-07T12:48:23;20.50;99.90
27540;DHT22;15906;52.046;4.724;2023-05-07T12:50:59;20.40;99.90
27540;DHT22;15906;52.046;4.724;2023-05-07T12:53:26;20.40;99.90
27540;DHT22;15906;52.046;4.724;2023-05-07T12:55:57;20.50;99.90
27540;DHT22;15906;52.046;4.724;2023-05-07T12:58:24;20.50;99.90
27540;DHT22;15906;52.046;4.724;2023-05-07T13:00:51;20.50;99.90
27540;DHT22;15906;52.046;4.724;2023-05-07T13:03:36;20.50;99.90
27540;DHT22;15906;52.046;4.724;2023-05-07T13:06:09;20.40;99.90
27540;DHT22;15906;52.046;4.724;2023-05-07T13:08:37;20.30;99.90
27540;DHT22;15906;52.046;4.724;2023-05-07T13:11:07;20.30;99.90
27540;DHT22;15906;52.046;4.724;2023-05-07T13:13:37;20.40;99.90
27540;DHT22;15906;52.046;4.724;2023-05-07T13:16:04;20.50;99.90
27540;DHT22;15906;52.046;4.724;2023-05-07T13:18:31;20.40;99.90
27540;DHT22;15906;52.046;4.724;2023-05-07T13:20:57;20.10;99.90
27540;DHT22;15906;52.046;4.724;2023-05-07T13:23:22;19.80;99.90
27540;DHT22;15906;52.046;4.724;2023-05-07T13:25:48;19.80;99.90
27540;DHT22;15906;52.046;4.724;2023-05-07T13:28:14;19.60;99.90
27540;DHT22;15906;52.046;4.724;2023-05-07T13:30:39;19.40;99.90
27540;DHT22;15906;52.046;4.724;2023-05-07T13:33:06;19.00;99.90
27540;DHT22;15906;52.046;4.724;2023-05-07T13:35:33;18.60;99.90
27540;DHT22;15906;52.046;4.724;2023-05-07T13:37:58;18.40;99.90
27540;DHT22;15906;52.046;4.724;2023-05-07T13:40:24;18.20;99.90
27540;DHT22;15906;52.046;4.724;2023-05-07T13:42:50;18.00;99.90
27540;DHT22;15906;52.046;4.724;2023-05-07T13:45:18;17.80;99.90
27540;DHT22;15906;52.046;4.724;2023-05-07T13:47:44;17.70;99.90
27540;DHT22;15906;52.046;4.724;2023-05-07T13:50:10;17.70;99.90
27540;DHT22;15906;52.046;4.724;2023-05-07T13:52:41;17.60;99.90
27540;DHT22;15906;52.046;4.724;2023-05-07T13:55:08;17.50;99.90
27540;DHT22;15906;52.046;4.724;2023-05-07T13:57:34;17.60;99.90
27540;DHT22;15906;52.046;4.724;2023-05-07T14:00:00;17.50;99.90
27540;DHT22;15906;52.046;4.724;2023-05-07T14:02:25;17.40;99.90
27540;DHT22;15906;52.046;4.724;2023-05-07T14:04:51;17.10;99.90
27540;DHT22;15906;52.046;4.724;2023-05-07T14:07:17;17.00;99.90
27540;DHT22;15906;52.046;4.724;2023-05-07T14:09:42;16.90;99.90
27540;DHT22;15906;52.046;4.724;2023-05-07T14:12:08;16.80;99.90
27540;DHT22;15906;52.046;4.724;2023-05-07T14:14:33;16.90;99.90
27540;DHT22;15906;52.046;4.724;2023-05-07T14:17:00;16.80;99.90
27540;DHT22;15906;52.046;4.724;2023-05-07T14:19:26;16.80;99.90
27540;DHT22;15906;52.046;4.724;2023-05-07T14:21:51;16.80;99.90
27540;DHT22;15906;52.046;4.724;2023-05-07T14:24:17;16.70;99.90
27540;DHT22;15906;52.046;4.724;2023-05-07T14:26:42;16.50;99.90
27540;DHT22;15906;52.046;4.724;2023-05-07T14:29:08;16.60;99.90
27540;DHT22;15906;52.046;4.724;2023-05-07T14:31:33;16.60;99.90
27540;DHT22;15906;52.046;4.724;2023-05-07T14:33:59;16.60;99.90
27540;DHT22;15906;52.046;4.724;2023-05-07T14:36:25;16.70;99.90
27540;DHT22;15906;52.046;4.724;2023-05-07T14:38:55;16.60;99.90
27540;DHT22;15906;52.046;4.724;2023-05-07T14:41:22;16.60;99.90
27540;DHT22;15906;52.046;4.724;2023-05-07T14:43:48;16.70;99.90
27540;DHT22;15906;52.046;4.724;2023-05-07T14:46:18;16.60;99.90
27540;DHT22;15906;52.046;4.724;2023-05-07T14:48:45;16.70;99.90
27540;DHT22;15906;52.046;4.724;2023-05-07T14:51:11;16.60;99.90
27540;DHT22;15906;52.046;4.724;2023-05-07T14:53:40;16.50;99.90
27540;DHT22;15906;52.046;4.724;2023-05-07T14:56:05;16.60;99.90
27540;DHT22;15906;52.046;4.724;2023-05-07T14:58:31;16.70;99.90
27540;DHT22;15906;52.046;4.724;2023-05-07T15:00:57;16.80;99.90
27540;DHT22;15906;52.046;4.724;2023-05-07T15:03:22;16.70;99.90
27540;DHT22;15906;52.046;4.724;2023-05-07T15:05:48;16.80;99.90
27540;DHT22;15906;52.046;4.724;2023-05-07T15:08:16;16.90;99.90
27540;DHT22;15906;52.046;4.724;2023-05-07T15:10:42;17.00;99.90
27540;DHT22;15906;52.046;4.724;2023-05-07T15:13:09;17.20;99.90
27540;DHT22;15906;52.046;4.724;2023-05-07T15:15:34;17.30;99.90
27540;DHT22;15906;52.046;4.724;2023-05-07T15:18:00;17.50;99.90
27540;DHT22;15906;52.046;4.724;2023-05-07T15:20:26;17.70;99.90
27540;DHT22;15906;52.046;4.724;2023-05-07T15:22:52;17.70;99.90
27540;DHT22;15906;52.046;4.724;2023-05-07T15:25:18;17.80;99.90
27540;DHT22;15906;52.046;4.724;2023-05-07T15:27:44;17.70;99.90
27540;DHT22;15906;52.046;4.724;2023-05-07T15:30:10;17.80;99.90
27540;DHT22;15906;52.046;4.724;2023-05-07T15:32:36;17.80;99.90
27540;DHT22;15906;52.046;4.724;2023-05-07T15:35:02;17.80;99.90